Time;durP1;ratioP1;P1;durP2;ratioP2;P2;SDS_P1;SDS_P2;PMS_P1;PMS_P2;Temp;Humidity;BMP_temperature;BMP_pressure;BME280_temperature;BME280_humidity;BME280_pressure;Samples;Min_cycle;Max_cycle;Signal;HPM_P1;HPM_P2
2022/02/13 00:01:43;;;;;;;;;;;24.20;90.10;;;;;;5080017;28;20351;-49
2022/02/13 00:04:14;;;;;;;;;;;24.20;89.30;;;;;;5074471;28;19962;-59
2022/02/13 00:06:41;;;;;;;;;;;24.30;87.70;;;;;;5073845;28;20008;-54
2022/02/13 00:09:08;;;;;;;;;;;24.30;89.00;;;;;;5068668;28;20163;-52
2022/02/13 00:11:34;;;;;;;;;;;24.30;88.70;;;;;;5073456;28;20314;-50
2022/02/13 00:14:01;;;;;;;;;;;24.40;89.90;;;;;;5074614;28;19937;-48
2022/02/13 00:16:28;;;;;;;;;;;24.40;89.80;;;;;;5078433;28;19971;-49
2022/02/13 00:18:55;;;;;;;;;;;24.40;89.20;;;;;;5055730;28;19920;-46
2022/02/13 00:21:21;;;;;;;;;;;24.50;86.90;;;;;;5072609;28;19948;-51
2022/02/13 00:23:54;;;;;;;;;;;24.50;87.50;;;;;;5073726;28;19909;-56
2022/02/13 00:26:21;;;;;;;;;;;24.60;89.00;;;;;;5055425;28;20278;-52
2022/02/13 00:28:51;;;;;;;;;;;24.60;87.40;;;;;;5069985;28;19909;-52
2022/02/13 00:31:17;;;;;;;;;;;24.70;88.90;;;;;;5041308;28;20007;-46
2022/02/13 00:33:44;;;;;;;;;;;24.70;88.90;;;;;;5073671;28;19981;-55
2022/02/13 00:36:13;;;;;;;;;;;24.70;88.90;;;;;;5073746;28;19909;-50
2022/02/13 00:38:40;;;;;;;;;;;24.80;86.80;;;;;;5071629;28;19909;-51
2022/02/13 00:41:06;;;;;;;;;;;24.90;87.80;;;;;;5069091;28;20006;-46
2022/02/13 00:43:33;;;;;;;;;;;24.90;87.10;;;;;;5072735;28;19912;-49
2022/02/13 00:46:00;;;;;;;;;;;25.00;85.80;;;;;;5073018;28;20270;-46
2022/02/13 00:48:26;;;;;;;;;;;24.90;85.10;;;;;;5072726;28;19913;-54
2022/02/13 00:50:53;;;;;;;;;;;25.00;85.60;;;;;;5066666;28;20477;-47
2022/02/13 00:53:20;;;;;;;;;;;25.00;87.00;;;;;;5054467;28;19909;-49
2022/02/13 00:55:47;;;;;;;;;;;25.10;86.30;;;;;;5073042;28;19908;-46
2022/02/13 00:58:14;;;;;;;;;;;25.10;83.80;;;;;;5072238;28;20137;-51
2022/02/13 01:00:40;;;;;;;;;;;25.10;84.30;;;;;;5071340;28;20033;-55
2022/02/13 01:03:07;;;;;;;;;;;25.20;83.70;;;;;;5072850;28;20007;-56
2022/02/13 01:05:34;;;;;;;;;;;25.20;85.00;;;;;;5072713;28;19908;-53
2022/02/13 01:08:01;;;;;;;;;;;25.20;85.90;;;;;;5073146;28;19908;-50
2022/02/13 01:10:31;;;;;;;;;;;25.10;86.80;;;;;;5052188;28;19912;-50
2022/02/13 01:12:58;;;;;;;;;;;25.10;86.50;;;;;;5073131;28;19966;-48
2022/02/13 01:15:25;;;;;;;;;;;25.20;84.30;;;;;;5068060;28;20122;-52
2022/02/13 01:17:52;;;;;;;;;;;25.20;86.30;;;;;;5091712;28;20433;-53
2022/02/13 01:20:18;;;;;;;;;;;25.20;85.50;;;;;;5087637;28;19912;-48
2022/02/13 01:22:45;;;;;;;;;;;25.20;85.50;;;;;;5091631;28;19954;-47
2022/02/13 01:25:12;;;;;;;;;;;25.10;86.10;;;;;;5092716;28;20301;-55
2022/02/13 01:27:39;;;;;;;;;;;25.20;85.60;;;;;;5091544;28;20568;-50
2022/02/13 01:30:09;;;;;;;;;;;25.20;83.50;;;;;;5084550;28;19912;-52
2022/02/13 01:32:54;;;;;;;;;;;25.20;83.50;;;;;;5091593;28;20350;-55
2022/02/13 01:35:21;;;;;;;;;;;25.20;85.60;;;;;;5092000;28;19908;-47
2022/02/13 01:37:47;;;;;;;;;;;25.30;84.90;;;;;;5092640;28;19917;-56
2022/02/13 01:40:16;;;;;;;;;;;25.30;86.00;;;;;;5087499;28;19915;-54
2022/02/13 01:42:43;;;;;;;;;;;25.20;83.10;;;;;;5091707;28;19931;-51
2022/02/13 01:45:10;;;;;;;;;;;25.20;85.40;;;;;;5092276;28;19908;-51
2022/02/13 01:47:37;;;;;;;;;;;25.20;85.40;;;;;;5092434;28;20373;-53
2022/02/13 01:50:31;;;;;;;;;;;25.20;84.70;;;;;;5086963;28;19908;-53
2022/02/13 01:52:58;;;;;;;;;;;25.30;86.20;;;;;;5089921;28;20354;-53
2022/02/13 01:55:24;;;;;;;;;;;25.30;86.10;;;;;;5089000;28;19977;-49
2022/02/13 01:57:51;;;;;;;;;;;25.40;83.60;;;;;;5091823;28;19908;-48
2022/02/13 02:00:18;;;;;;;;;;;25.50;85.30;;;;;;5087204;28;19912;-52
2022/02/13 02:02:45;;;;;;;;;;;25.60;81.40;;;;;;5091170;28;19977;-58
2022/02/13 02:05:12;;;;;;;;;;;25.70;75.70;;;;;;5092159;28;19947;-55
2022/02/13 02:07:38;;;;;;;;;;;25.70;78.30;;;;;;5092050;28;19908;-49
2022/02/13 02:10:05;;;;;;;;;;;25.80;76.90;;;;;;5086319;28;19919;-48
2022/02/13 02:12:32;;;;;;;;;;;25.80;76.20;;;;;;5090573;28;19978;-56
2022/02/13 02:14:59;;;;;;;;;;;25.90;77.10;;;;;;5091870;28;19923;-53
2022/02/13 02:17:25;;;;;;;;;;;25.90;78.70;;;;;;5092100;28;19920;-49
2022/02/13 02:19:52;;;;;;;;;;;25.90;77.20;;;;;;5087296;28;19908;-50
2022/02/13 02:22:19;;;;;;;;;;;25.90;79.70;;;;;;5091142;28;19908;-53
2022/02/13 02:24:46;;;;;;;;;;;25.90;80.30;;;;;;5092164;28;19916;-54
2022/02/13 02:27:13;;;;;;;;;;;25.90;79.50;;;;;;5091339;28;19908;-57
2022/02/13 02:29:40;;;;;;;;;;;25.90;80.10;;;;;;5086325;28;19911;-58
2022/02/13 02:32:10;;;;;;;;;;;25.90;77.90;;;;;;5088002;28;19978;-55
2022/02/13 02:34:38;;;;;;;;;;;25.90;78.70;;;;;;5091724;28;19915;-55
2022/02/13 02:37:05;;;;;;;;;;;25.90;79.30;;;;;;5093398;28;19914;-58
2022/02/13 02:39:32;;;;;;;;;;;25.90;79.20;;;;;;5093417;28;20373;-56
2022/02/13 02:41:59;;;;;;;;;;;25.90;80.40;;;;;;5093417;28;20415;-57
2022/02/13 02:44:26;;;;;;;;;;;25.90;80.40;;;;;;5093359;28;19934;-53
2022/02/13 02:46:52;;;;;;;;;;;25.90;78.20;;;;;;5092943;28;19909;-57
2022/02/13 02:49:19;;;;;;;;;;;25.90;78.20;;;;;;5093364;28;20007;-53
2022/02/13 02:51:46;;;;;;;;;;;25.90;79.50;;;;;;5092994;28;19920;-54
2022/02/13 02:54:12;;;;;;;;;;;25.90;77.80;;;;;;5094223;28;20344;-54
2022/02/13 02:56:39;;;;;;;;;;;25.90;78.20;;;;;;5113295;28;19908;-54
2022/02/13 02:59:06;;;;;;;;;;;25.90;76.30;;;;;;5113433;28;20384;-55
2022/02/13 03:01:32;;;;;;;;;;;25.90;75.80;;;;;;5112145;28;19919;-53
2022/02/13 03:03:59;;;;;;;;;;;25.90;77.10;;;;;;5113053;28;19908;-56
2022/02/13 03:06:26;;;;;;;;;;;25.90;77.80;;;;;;5112140;28;19927;-57
2022/02/13 03:08:52;;;;;;;;;;;25.90;78.60;;;;;;5111971;28;19914;-57
2022/02/13 03:11:19;;;;;;;;;;;25.90;79.30;;;;;;5113875;28;19915;-54
2022/02/13 03:13:46;;;;;;;;;;;25.80;77.60;;;;;;5113230;28;20059;-60
2022/02/13 03:16:12;;;;;;;;;;;25.80;79.80;;;;;;5113198;28;20386;-53
2022/02/13 03:18:39;;;;;;;;;;;25.70;78.90;;;;;;5113245;28;19908;-52
2022/02/13 03:21:06;;;;;;;;;;;25.70;80.20;;;;;;5113558;28;19908;-54
2022/02/13 03:23:32;;;;;;;;;;;25.60;80.70;;;;;;5113523;28;19985;-58
2022/02/13 03:25:59;;;;;;;;;;;25.60;80.20;;;;;;5113406;28;19908;-56
2022/02/13 03:28:26;;;;;;;;;;;25.60;79.00;;;;;;5113205;28;19912;-53
2022/02/13 03:30:52;;;;;;;;;;;25.70;79.90;;;;;;5112906;28;19912;-54
2022/02/13 03:33:19;;;;;;;;;;;25.70;78.80;;;;;;5113618;28;19912;-57
2022/02/13 03:35:46;;;;;;;;;;;25.70;80.40;;;;;;5113213;28;19952;-52
2022/02/13 03:38:13;;;;;;;;;;;25.80;81.50;;;;;;5113304;28;19908;-52
2022/02/13 03:40:40;;;;;;;;;;;25.70;75.70;;;;;;5112900;28;19907;-53
2022/02/13 03:43:07;;;;;;;;;;;25.70;78.10;;;;;;5113110;28;19915;-56
2022/02/13 03:45:34;;;;;;;;;;;25.80;78.10;;;;;;5115355;28;20366;-53
2022/02/13 03:48:01;;;;;;;;;;;25.70;74.30;;;;;;5115212;28;20297;-54
2022/02/13 03:50:28;;;;;;;;;;;25.70;73.10;;;;;;5117277;28;19915;-55
2022/02/13 03:52:55;;;;;;;;;;;25.80;72.60;;;;;;5116159;28;20018;-56
2022/02/13 03:55:21;;;;;;;;;;;25.80;72.10;;;;;;5116449;28;20043;-60
2022/02/13 03:57:48;;;;;;;;;;;25.90;72.70;;;;;;5116725;28;20293;-55
2022/02/13 04:00:15;;;;;;;;;;;25.90;71.40;;;;;;5117391;28;19908;-59
2022/02/13 04:02:42;;;;;;;;;;;25.90;71.90;;;;;;5116774;28;19919;-57
2022/02/13 04:05:09;;;;;;;;;;;26.00;71.90;;;;;;5117284;28;19915;-54
2022/02/13 04:07:39;;;;;;;;;;;26.10;69.50;;;;;;5116052;28;19964;-57
2022/02/13 04:10:06;;;;;;;;;;;26.10;68.10;;;;;;5117197;28;19937;-61
2022/02/13 04:12:33;;;;;;;;;;;26.10;67.40;;;;;;5116562;28;19916;-59
2022/02/13 04:15:01;;;;;;;;;;;26.10;67.10;;;;;;5116544;28;19912;-60
2022/02/13 04:17:28;;;;;;;;;;;26.10;68.00;;;;;;5116557;28;19950;-57
2022/02/13 04:19:55;;;;;;;;;;;26.20;67.70;;;;;;5116560;28;19908;-56
2022/02/13 04:22:22;;;;;;;;;;;26.20;68.50;;;;;;5115401;28;19907;-61
2022/02/13 04:24:48;;;;;;;;;;;26.30;66.80;;;;;;5116717;28;19930;-60
2022/02/13 04:27:15;;;;;;;;;;;26.30;68.70;;;;;;5116351;28;20022;-58
2022/02/13 04:29:42;;;;;;;;;;;26.30;71.70;;;;;;5116289;28;19916;-61
2022/02/13 04:32:08;;;;;;;;;;;26.30;72.30;;;;;;5116399;28;19924;-57
2022/02/13 04:34:35;;;;;;;;;;;26.40;72.70;;;;;;5116255;27;19946;-63
2022/02/13 04:37:05;;;;;;;;;;;26.40;74.40;;;;;;5116292;28;19931;-62
2022/02/13 04:39:31;;;;;;;;;;;26.50;71.20;;;;;;5116512;28;19908;-56
2022/02/13 04:42:02;;;;;;;;;;;26.50;73.40;;;;;;5115334;28;19915;-56
2022/02/13 04:44:28;;;;;;;;;;;26.50;75.20;;;;;;5116309;28;19908;-63
2022/02/13 04:46:55;;;;;;;;;;;26.40;72.40;;;;;;5116336;28;19915;-59
2022/02/13 04:49:22;;;;;;;;;;;26.50;73.30;;;;;;5116490;28;19908;-61
2022/02/13 04:51:48;;;;;;;;;;;26.50;73.00;;;;;;5116278;28;19916;-60
2022/02/13 04:54:15;;;;;;;;;;;26.50;70.60;;;;;;5115673;28;20346;-59
2022/02/13 04:56:45;;;;;;;;;;;26.40;70.30;;;;;;5114381;28;19908;-59
2022/02/13 04:59:12;;;;;;;;;;;26.40;69.30;;;;;;5115824;28;20365;-55
2022/02/13 05:01:39;;;;;;;;;;;26.50;69.50;;;;;;5115824;28;19915;-51
2022/02/13 05:04:05;;;;;;;;;;;26.60;71.50;;;;;;5114085;28;20003;-53
2022/02/13 05:06:32;;;;;;;;;;;26.50;73.40;;;;;;5115525;28;19953;-64
2022/02/13 05:09:03;;;;;;;;;;;26.50;69.60;;;;;;5115590;28;19907;-60
2022/02/13 05:11:30;;;;;;;;;;;26.60;73.00;;;;;;5115064;28;20362;-55
2022/02/13 05:13:57;;;;;;;;;;;26.40;73.90;;;;;;5115421;28;19915;-48
2022/02/13 05:16:23;;;;;;;;;;;26.40;74.80;;;;;;5113747;28;19920;-47
2022/02/13 05:18:50;;;;;;;;;;;26.40;76.00;;;;;;5115110;28;19907;-52
2022/02/13 05:21:17;;;;;;;;;;;26.40;75.40;;;;;;5115391;28;19915;-48
2022/02/13 05:23:44;;;;;;;;;;;26.40;76.20;;;;;;5114816;28;20299;-51
2022/02/13 05:26:12;;;;;;;;;;;26.30;77.00;;;;;;5115101;28;19961;-50
2022/02/13 05:28:39;;;;;;;;;;;26.40;76.00;;;;;;5115126;28;20003;-49
2022/02/13 05:31:05;;;;;;;;;;;26.40;77.10;;;;;;5114982;28;19923;-50
2022/02/13 05:33:32;;;;;;;;;;;26.40;76.90;;;;;;5115324;28;20012;-50
2022/02/13 05:35:59;;;;;;;;;;;26.40;77.30;;;;;;5093301;28;19923;-53
2022/02/13 05:38:26;;;;;;;;;;;26.40;77.00;;;;;;5094020;28;19965;-48
2022/02/13 05:40:52;;;;;;;;;;;26.40;76.60;;;;;;5094596;28;20009;-53
2022/02/13 05:43:19;;;;;;;;;;;26.50;77.00;;;;;;5094889;28;19908;-61
2022/02/13 05:45:46;;;;;;;;;;;26.50;76.00;;;;;;5094710;28;19919;-55
2022/02/13 05:48:13;;;;;;;;;;;26.50;76.20;;;;;;5094852;28;19908;-53
2022/02/13 05:50:41;;;;;;;;;;;26.50;77.20;;;;;;5094285;28;19912;-48
2022/02/13 05:53:08;;;;;;;;;;;26.50;76.30;;;;;;5094266;28;19920;-47
2022/02/13 05:55:35;;;;;;;;;;;26.40;76.70;;;;;;5094231;28;20010;-56
2022/02/13 05:58:02;;;;;;;;;;;26.50;75.80;;;;;;5087051;28;19912;-49
2022/02/13 06:00:28;;;;;;;;;;;26.40;76.30;;;;;;5093945;28;19916;-51
2022/02/13 06:02:55;;;;;;;;;;;26.40;77.40;;;;;;5092799;28;19915;-47
2022/02/13 06:05:22;;;;;;;;;;;26.30;77.00;;;;;;5092549;28;19908;-51
2022/02/13 06:07:48;;;;;;;;;;;26.30;78.50;;;;;;5090396;28;19912;-50
2022/02/13 06:10:15;;;;;;;;;;;26.30;76.70;;;;;;5091794;28;20366;-47
2022/02/13 06:12:42;;;;;;;;;;;26.30;77.00;;;;;;5092246;28;19916;-51
2022/02/13 06:15:10;;;;;;;;;;;26.20;78.80;;;;;;5089204;28;19923;-52
2022/02/13 06:17:37;;;;;;;;;;;26.30;77.50;;;;;;5091434;28;19958;-49
2022/02/13 06:20:04;;;;;;;;;;;26.30;77.80;;;;;;5085260;28;19916;-52
2022/02/13 06:22:31;;;;;;;;;;;26.20;76.60;;;;;;5091851;28;19915;-47
2022/02/13 06:25:01;;;;;;;;;;;26.30;77.20;;;;;;5085790;28;19908;-52
2022/02/13 06:27:27;;;;;;;;;;;26.20;77.40;;;;;;5088344;28;19952;-48
2022/02/13 06:29:55;;;;;;;;;;;26.20;77.70;;;;;;5086522;28;19908;-49
2022/02/13 06:32:28;;;;;;;;;;;26.20;78.30;;;;;;5089475;28;19922;-46
2022/02/13 06:34:54;;;;;;;;;;;26.10;77.90;;;;;;5063541;28;19986;-53
2022/02/13 06:37:21;;;;;;;;;;;26.10;79.60;;;;;;5091474;28;19931;-48
2022/02/13 06:39:48;;;;;;;;;;;26.10;79.10;;;;;;5086223;28;19908;-52
2022/02/13 06:42:15;;;;;;;;;;;26.10;79.40;;;;;;5088499;28;19908;-53
2022/02/13 06:44:41;;;;;;;;;;;26.00;79.20;;;;;;5076386;28;20564;-53
2022/02/13 06:47:09;;;;;;;;;;;26.00;79.30;;;;;;5090087;28;19908;-49
2022/02/13 06:49:36;;;;;;;;;;;26.00;78.70;;;;;;5087281;28;20278;-49
2022/02/13 06:52:02;;;;;;;;;;;26.00;78.80;;;;;;5091282;28;20362;-54
2022/02/13 06:54:29;;;;;;;;;;;25.90;79.60;;;;;;5081937;28;20451;-53
2022/02/13 06:56:56;;;;;;;;;;;25.90;79.80;;;;;;5091168;28;20253;-50
2022/02/13 06:59:23;;;;;;;;;;;25.80;80.90;;;;;;5087071;28;20319;-46
2022/02/13 07:01:50;;;;;;;;;;;25.70;81.00;;;;;;5069773;28;19979;-51
2022/02/13 07:04:16;;;;;;;;;;;25.70;81.60;;;;;;5085970;28;19971;-49
2022/02/13 07:06:43;;;;;;;;;;;25.60;82.00;;;;;;5088077;28;20323;-54
2022/02/13 07:09:10;;;;;;;;;;;25.50;81.70;;;;;;5086043;28;19935;-46
2022/02/13 07:11:40;;;;;;;;;;;25.50;80.80;;;;;;5084071;28;19919;-50
2022/02/13 07:14:07;;;;;;;;;;;25.50;80.00;;;;;;5081586;28;19915;-60
2022/02/13 07:16:33;;;;;;;;;;;25.50;79.80;;;;;;5067959;28;19928;-53
2022/02/13 07:19:00;;;;;;;;;;;25.50;80.10;;;;;;5076635;28;19916;-53
2022/02/13 07:21:27;;;;;;;;;;;25.50;79.80;;;;;;5074845;28;19908;-51
2022/02/13 07:23:53;;;;;;;;;;;25.40;80.60;;;;;;5079355;28;19909;-57
2022/02/13 07:26:20;;;;;;;;;;;25.40;80.30;;;;;;5070866;28;19962;-52
2022/02/13 07:28:59;;;;;;;;;;;25.40;79.70;;;;;;5056247;28;19908;-55
2022/02/13 07:31:29;;;;;;;;;;;25.40;80.50;;;;;;5074811;28;19921;-54
2022/02/13 07:33:56;;;;;;;;;;;25.30;78.90;;;;;;5074789;28;19999;-53
2022/02/13 07:36:23;;;;;;;;;;;25.30;79.70;;;;;;5070605;28;19966;-52
2022/02/13 07:38:50;;;;;;;;;;;25.30;80.10;;;;;;5073446;28;20371;-50
2022/02/13 07:41:16;;;;;;;;;;;25.30;80.70;;;;;;5073807;28;19959;-51
2022/02/13 07:43:43;;;;;;;;;;;25.20;80.90;;;;;;5075045;28;19908;-53
2022/02/13 07:46:10;;;;;;;;;;;25.20;80.20;;;;;;5070148;28;19908;-52
2022/02/13 07:48:37;;;;;;;;;;;25.20;79.70;;;;;;5075444;28;19908;-56
2022/02/13 07:51:04;;;;;;;;;;;25.20;79.50;;;;;;5074610;28;19912;-55
2022/02/13 07:53:31;;;;;;;;;;;25.20;79.90;;;;;;5074447;28;19916;-54
2022/02/13 07:55:58;;;;;;;;;;;25.20;80.10;;;;;;5069675;28;19995;-49
2022/02/13 07:58:30;;;;;;;;;;;25.10;79.90;;;;;;5074562;28;19914;-53
2022/02/13 08:00:56;;;;;;;;;;;25.10;80.40;;;;;;5073194;28;19912;-52
2022/02/13 08:03:23;;;;;;;;;;;25.10;80.10;;;;;;5056394;28;20007;-53
2022/02/13 08:05:50;;;;;;;;;;;25.10;79.80;;;;;;5070631;28;19956;-52
2022/02/13 08:08:17;;;;;;;;;;;25.00;80.70;;;;;;5074232;28;20252;-56
2022/02/13 08:10:43;;;;;;;;;;;25.00;80.30;;;;;;5073370;28;20279;-52
2022/02/13 08:13:10;;;;;;;;;;;25.10;80.00;;;;;;5074709;28;20469;-55
2022/02/13 08:15:38;;;;;;;;;;;25.00;80.30;;;;;;5079744;28;19920;-51
2022/02/13 08:18:08;;;;;;;;;;;25.00;80.60;;;;;;5093092;28;20365;-50
2022/02/13 08:20:35;;;;;;;;;;;25.00;80.80;;;;;;5093569;28;19969;-51
2022/02/13 08:23:02;;;;;;;;;;;24.90;80.70;;;;;;5094467;28;21096;-57
2022/02/13 08:25:29;;;;;;;;;;;25.00;80.90;;;;;;5088740;28;20354;-54
2022/02/13 08:27:56;;;;;;;;;;;25.00;80.50;;;;;;5093071;28;20297;-54
2022/02/13 08:30:23;;;;;;;;;;;24.90;80.60;;;;;;5093484;28;19999;-49
2022/02/13 08:32:49;;;;;;;;;;;24.90;80.80;;;;;;5093976;28;19965;-49
2022/02/13 08:35:16;;;;;;;;;;;24.90;80.60;;;;;;5089437;28;20412;-52
2022/02/13 08:37:43;;;;;;;;;;;24.90;80.50;;;;;;5094681;28;19931;-53
2022/02/13 08:40:13;;;;;;;;;;;24.90;80.70;;;;;;5090120;28;20052;-51
2022/02/13 08:42:40;;;;;;;;;;;24.90;80.60;;;;;;5090168;28;19909;-53
2022/02/13 08:45:07;;;;;;;;;;;24.90;80.40;;;;;;5084748;28;19908;-56
2022/02/13 08:47:34;;;;;;;;;;;24.80;80.10;;;;;;5090439;28;19912;-56
2022/02/13 08:50:00;;;;;;;;;;;24.80;80.90;;;;;;5091191;28;20375;-53
2022/02/13 08:52:27;;;;;;;;;;;24.80;80.90;;;;;;5094830;28;19919;-52
2022/02/13 08:54:54;;;;;;;;;;;24.80;81.00;;;;;;5086147;28;20362;-57
2022/02/13 08:57:21;;;;;;;;;;;24.70;81.30;;;;;;5091854;28;21053;-60
2022/02/13 08:59:48;;;;;;;;;;;24.70;81.50;;;;;;5093472;28;19947;-54
2022/02/13 09:02:15;;;;;;;;;;;24.70;81.20;;;;;;5091204;28;19912;-54
2022/02/13 09:04:41;;;;;;;;;;;24.70;81.60;;;;;;5085955;28;19938;-56
2022/02/13 09:07:08;;;;;;;;;;;24.70;81.70;;;;;;5092393;28;19912;-53
2022/02/13 09:09:35;;;;;;;;;;;24.60;81.70;;;;;;5090339;28;19908;-53
2022/02/13 09:12:02;;;;;;;;;;;24.70;81.70;;;;;;5091041;28;20027;-48
2022/02/13 09:14:30;;;;;;;;;;;24.60;81.80;;;;;;5086754;28;19912;-52
2022/02/13 09:16:57;;;;;;;;;;;24.60;81.80;;;;;;5093587;28;19938;-53
2022/02/13 09:19:23;;;;;;;;;;;24.60;80.80;;;;;;5092649;28;19912;-50
2022/02/13 09:21:52;;;;;;;;;;;24.60;80.90;;;;;;5093755;28;19908;-51
2022/02/13 09:24:21;;;;;;;;;;;24.60;81.20;;;;;;5090678;28;19908;-53
2022/02/13 09:26:48;;;;;;;;;;;24.60;81.90;;;;;;5090464;28;19908;-51
2022/02/13 09:29:15;;;;;;;;;;;24.50;81.70;;;;;;5092846;28;19908;-55
2022/02/13 09:31:42;;;;;;;;;;;24.50;81.90;;;;;;5092485;28;19916;-50
2022/02/13 09:34:12;;;;;;;;;;;24.50;81.70;;;;;;5091686;28;19908;-55
2022/02/13 09:36:42;;;;;;;;;;;24.50;81.50;;;;;;5090450;28;20353;-55
2022/02/13 09:39:09;;;;;;;;;;;24.40;81.80;;;;;;5092604;28;19908;-48
2022/02/13 09:41:37;;;;;;;;;;;24.40;82.00;;;;;;5092712;28;19912;-49
2022/02/13 09:44:04;;;;;;;;;;;24.40;82.00;;;;;;5092134;28;20412;-52
2022/02/13 09:46:31;;;;;;;;;;;24.40;81.90;;;;;;5088514;28;20251;-54
2022/02/13 09:48:58;;;;;;;;;;;24.40;82.10;;;;;;5092236;28;19990;-56
2022/02/13 09:51:25;;;;;;;;;;;24.40;82.20;;;;;;5091687;28;19969;-55
2022/02/13 09:53:54;;;;;;;;;;;24.40;82.10;;;;;;5092446;28;19914;-51
2022/02/13 09:56:21;;;;;;;;;;;24.30;82.30;;;;;;5087579;28;19908;-52
2022/02/13 09:58:48;;;;;;;;;;;24.30;82.10;;;;;;5092647;28;20278;-49
2022/02/13 10:01:17;;;;;;;;;;;24.30;82.10;;;;;;5091732;28;19914;-50
2022/02/13 10:03:49;;;;;;;;;;;24.30;82.10;;;;;;5091659;28;19915;-55
2022/02/13 10:06:16;;;;;;;;;;;24.30;81.80;;;;;;5086992;28;19908;-50
2022/02/13 10:08:49;;;;;;;;;;;24.30;82.00;;;;;;5092694;28;19915;-49
2022/02/13 10:11:24;;;;;;;;;;;24.30;82.00;;;;;;5091683;28;20000;-55
2022/02/13 10:13:57;;;;;;;;;;;24.30;82.10;;;;;;5091526;28;19914;-48
2022/02/13 10:16:23;;;;;;;;;;;24.30;82.10;;;;;;5083306;28;20401;-53
2022/02/13 10:18:52;;;;;;;;;;;24.30;82.30;;;;;;5085750;28;19938;-53
2022/02/13 10:21:44;;;;;;;;;;;24.30;82.00;;;;;;5081570;28;19908;-53
2022/02/13 10:24:30;;;;;;;;;;;24.30;82.20;;;;;;5052074;28;19931;-51
2022/02/13 10:26:57;;;;;;;;;;;24.30;82.10;;;;;;5070898;28;20294;-55
2022/02/13 10:29:31;;;;;;;;;;;24.20;82.00;;;;;;5081660;28;20395;-50
2022/02/13 10:32:11;;;;;;;;;;;24.20;81.90;;;;;;5088720;28;20007;-55
2022/02/13 10:34:55;;;;;;;;;;;24.20;82.20;;;;;;5083776;28;19912;-49
2022/02/13 10:37:40;;;;;;;;;;;24.20;82.20;;;;;;5091871;28;20309;-51
2022/02/13 10:40:34;;;;;;;;;;;24.20;81.80;;;;;;5067945;28;19908;-53
2022/02/13 10:43:02;;;;;;;;;;;24.20;82.20;;;;;;5087918;28;19909;-50
2022/02/13 10:45:29;;;;;;;;;;;24.20;82.30;;;;;;5081115;28;20324;-51
2022/02/13 10:48:00;;;;;;;;;;;24.20;82.60;;;;;;5086472;28;20007;-52
2022/02/13 10:50:28;;;;;;;;;;;24.20;82.10;;;;;;5071409;28;20274;-47
2022/02/13 10:52:58;;;;;;;;;;;24.10;82.50;;;;;;5073710;28;19916;-53
2022/02/13 10:55:26;;;;;;;;;;;24.10;82.30;;;;;;5083737;28;19915;-52
2022/02/13 10:57:56;;;;;;;;;;;24.10;82.60;;;;;;5074069;28;20011;-51
2022/02/13 11:00:23;;;;;;;;;;;24.10;82.70;;;;;;5055532;28;19908;-50
2022/02/13 11:02:52;;;;;;;;;;;24.10;82.80;;;;;;5089453;28;19915;-51
2022/02/13 11:05:21;;;;;;;;;;;24.10;82.70;;;;;;5066269;28;19923;-51
2022/02/13 11:07:49;;;;;;;;;;;24.10;82.90;;;;;;5076038;28;19919;-53
2022/02/13 11:10:20;;;;;;;;;;;24.10;83.10;;;;;;5093791;28;19912;-47
2022/02/13 11:12:49;;;;;;;;;;;24.10;83.00;;;;;;5093163;28;19927;-51
2022/02/13 11:15:17;;;;;;;;;;;24.10;83.10;;;;;;5084897;28;19926;-57
2022/02/13 11:17:46;;;;;;;;;;;24.10;83.10;;;;;;5095809;28;19909;-52
2022/02/13 11:20:14;;;;;;;;;;;24.10;83.00;;;;;;5095778;28;20358;-52
2022/02/13 11:22:41;;;;;;;;;;;24.00;82.70;;;;;;5095048;28;19923;-51
2022/02/13 11:25:10;;;;;;;;;;;24.00;82.60;;;;;;5090513;28;19923;-49
2022/02/13 11:28:03;;;;;;;;;;;24.00;82.80;;;;;;5095489;28;19919;-51
2022/02/13 11:30:42;;;;;;;;;;;24.10;83.00;;;;;;5092299;28;20099;-49
2022/02/13 11:33:10;;;;;;;;;;;24.00;82.90;;;;;;5095318;28;19951;-51
2022/02/13 11:35:54;;;;;;;;;;;24.00;82.90;;;;;;5089801;28;20033;-49
2022/02/13 11:38:38;;;;;;;;;;;24.00;82.70;;;;;;5095376;28;20389;-51
2022/02/13 11:41:06;;;;;;;;;;;24.00;82.90;;;;;;5093262;28;19912;-56
2022/02/13 11:43:53;;;;;;;;;;;24.00;82.90;;;;;;5095625;28;19908;-53
2022/02/13 11:46:26;;;;;;;;;;;24.00;83.00;;;;;;5089687;28;19908;-51
2022/02/13 11:49:03;;;;;;;;;;;24.00;83.00;;;;;;5092026;28;19912;-43
2022/02/13 11:51:50;;;;;;;;;;;23.90;83.00;;;;;;5094313;28;19912;-56
2022/02/13 11:54:35;;;;;;;;;;;23.90;82.90;;;;;;5094512;28;19915;-55
2022/02/13 11:57:06;;;;;;;;;;;23.90;83.10;;;;;;5092901;28;20003;-54
2022/02/13 11:59:54;;;;;;;;;;;23.90;83.00;;;;;;5093869;28;20010;-52
2022/02/13 12:02:37;;;;;;;;;;;23.90;83.00;;;;;;5095099;28;19969;-49
2022/02/13 12:05:03;;;;;;;;;;;23.90;82.80;;;;;;5087486;28;19916;-56
2022/02/13 12:07:34;;;;;;;;;;;23.90;82.90;;;;;;5094704;28;19908;-53
2022/02/13 12:10:01;;;;;;;;;;;23.90;82.90;;;;;;5091283;28;19932;-48
2022/02/13 12:12:38;;;;;;;;;;;23.80;82.80;;;;;;5092240;28;19916;-50
2022/02/13 12:15:05;;;;;;;;;;;23.90;83.00;;;;;;5084837;28;19929;-47
2022/02/13 12:17:32;;;;;;;;;;;23.90;83.00;;;;;;5094843;28;20004;-50
2022/02/13 12:20:00;;;;;;;;;;;23.80;83.00;;;;;;5089944;28;19913;-50
2022/02/13 12:22:31;;;;;;;;;;;23.90;83.10;;;;;;5086731;28;20227;-49
2022/02/13 12:25:01;;;;;;;;;;;23.80;82.90;;;;;;5084671;28;19995;-51
2022/02/13 12:27:28;;;;;;;;;;;23.80;83.10;;;;;;5094200;28;19920;-48
2022/02/13 12:29:56;;;;;;;;;;;23.80;83.00;;;;;;5091983;28;19912;-50
2022/02/13 12:32:35;;;;;;;;;;;23.80;83.20;;;;;;5089607;28;19995;-49
2022/02/13 12:35:15;;;;;;;;;;;23.80;83.20;;;;;;5078226;28;20568;-48
2022/02/13 12:37:43;;;;;;;;;;;23.80;83.30;;;;;;5091823;28;19912;-48
2022/02/13 12:40:15;;;;;;;;;;;23.80;83.20;;;;;;5091626;28;20280;-53
2022/02/13 12:42:46;;;;;;;;;;;23.80;83.30;;;;;;5093717;28;19908;-52
2022/02/13 12:45:14;;;;;;;;;;;23.80;83.40;;;;;;5082721;28;20362;-53
2022/02/13 12:47:46;;;;;;;;;;;23.70;83.20;;;;;;5094081;28;19920;-47
2022/02/13 12:50:14;;;;;;;;;;;23.70;83.30;;;;;;5089627;28;19908;-50
2022/02/13 12:52:42;;;;;;;;;;;23.70;83.40;;;;;;5094838;28;19923;-55
2022/02/13 12:55:13;;;;;;;;;;;23.70;83.40;;;;;;5094922;28;19915;-52
2022/02/13 12:57:41;;;;;;;;;;;23.70;83.30;;;;;;5094844;28;19908;-56
2022/02/13 13:00:15;;;;;;;;;;;23.70;83.30;;;;;;5094748;28;19953;-57
2022/02/13 13:02:43;;;;;;;;;;;23.60;83.20;;;;;;5094476;28;19951;-56
2022/02/13 13:05:17;;;;;;;;;;;23.60;83.40;;;;;;5094650;28;19908;-45
2022/02/13 13:07:45;;;;;;;;;;;23.60;83.40;;;;;;5064133;28;19912;-58
2022/02/13 13:10:22;;;;;;;;;;;23.50;83.40;;;;;;5084909;28;19998;-53
2022/02/13 13:13:06;;;;;;;;;;;23.50;83.30;;;;;;5091632;28;20186;-58
2022/02/13 13:15:33;;;;;;;;;;;23.50;83.40;;;;;;5080445;28;19927;-60
2022/02/13 13:18:01;;;;;;;;;;;23.50;83.50;;;;;;5091395;28;19920;-50
2022/02/13 13:20:44;;;;;;;;;;;23.40;83.60;;;;;;5090468;28;19965;-44
2022/02/13 13:23:15;;;;;;;;;;;23.50;83.60;;;;;;5093104;28;19908;-57
2022/02/13 13:26:04;;;;;;;;;;;23.40;83.80;;;;;;5094506;28;19947;-44
2022/02/13 13:28:30;;;;;;;;;;;23.40;83.90;;;;;;5108274;28;19954;-53
2022/02/13 13:31:05;;;;;;;;;;;23.40;83.90;;;;;;5098388;28;19914;-53
2022/02/13 13:33:32;;;;;;;;;;;23.30;83.90;;;;;;5092498;28;19959;-56
2022/02/13 13:35:59;;;;;;;;;;;23.30;84.00;;;;;;5094453;28;19908;-58
2022/02/13 13:38:34;;;;;;;;;;;23.30;83.90;;;;;;5093125;28;19991;-47
2022/02/13 13:41:05;;;;;;;;;;;23.30;84.10;;;;;;5091824;28;20430;-60
2022/02/13 13:43:32;;;;;;;;;;;23.20;84.10;;;;;;5090369;28;19952;-50
2022/02/13 13:46:11;;;;;;;;;;;23.20;84.10;;;;;;5092353;28;20360;-53
2022/02/13 13:48:38;;;;;;;;;;;23.20;84.30;;;;;;5093658;28;19954;-56
2022/02/13 13:51:04;;;;;;;;;;;23.20;84.40;;;;;;5091426;28;19995;-56
2022/02/13 13:53:31;;;;;;;;;;;23.20;84.40;;;;;;5088913;28;19939;-54
2022/02/13 13:55:58;;;;;;;;;;;23.10;84.40;;;;;;5092107;28;20368;-52
2022/02/13 13:58:26;;;;;;;;;;;23.10;84.50;;;;;;5092153;28;21172;-55
2022/02/13 14:00:54;;;;;;;;;;;23.10;84.40;;;;;;5091112;28;19995;-56
2022/02/13 14:03:21;;;;;;;;;;;23.10;84.60;;;;;;5087442;28;19916;-54
2022/02/13 14:05:48;;;;;;;;;;;23.10;84.60;;;;;;5092200;28;19908;-56
2022/02/13 14:08:14;;;;;;;;;;;23.10;84.70;;;;;;5090073;28;19961;-57
2022/02/13 14:10:43;;;;;;;;;;;23.00;84.70;;;;;;5090874;28;20002;-58
2022/02/13 14:13:13;;;;;;;;;;;23.10;84.90;;;;;;5086846;28;19924;-58
2022/02/13 14:15:41;;;;;;;;;;;23.00;84.90;;;;;;5091565;28;19980;-53
2022/02/13 14:18:08;;;;;;;;;;;23.00;84.80;;;;;;5091644;28;19916;-53
2022/02/13 14:20:35;;;;;;;;;;;23.00;84.90;;;;;;5087522;28;19915;-54
2022/02/13 14:23:01;;;;;;;;;;;22.90;85.00;;;;;;5079225;28;20820;-56
2022/02/13 14:25:28;;;;;;;;;;;22.90;84.90;;;;;;5091235;28;19939;-53